createdAt,value
2023-03-10T00:00:34.428Z,8.82
2023-03-10T00:03:58.550Z,8.70
2023-03-10T00:07:01.510Z,8.52
2023-03-10T00:10:04.638Z,8.80
2023-03-10T00:13:07.511Z,9.15
2023-03-10T00:16:18.104Z,9.48
2023-03-10T00:19:21.027Z,8.95
2023-03-10T00:22:23.847Z,9.85
2023-03-10T00:25:26.848Z,8.95
2023-03-10T00:28:29.908Z,11.07
2023-03-10T00:31:34.796Z,9.95
2023-03-10T00:34:37.685Z,10.30
2023-03-10T00:37:40.522Z,9.73
2023-03-10T00:40:43.426Z,10.30
2023-03-10T00:43:46.757Z,10.57
2023-03-10T00:49:52.681Z,10.60
2023-03-10T00:52:55.552Z,10.52
2023-03-10T00:56:12.225Z,9.93
2023-03-10T00:59:15.345Z,10.25
2023-03-10T01:02:21.119Z,10.05
2023-03-10T01:05:24.375Z,10.73
2023-03-10T01:08:27.269Z,10.15
2023-03-10T01:11:31.230Z,10.48
2023-03-10T01:14:34.074Z,10.25
2023-03-10T01:17:37.101Z,10.82
2023-03-10T01:20:41.886Z,10.18
2023-03-10T01:23:44.875Z,10.18
2023-03-10T01:26:47.749Z,10.15
2023-03-10T01:29:50.571Z,10.23
2023-03-10T01:32:53.456Z,10.80
2023-03-10T01:35:56.493Z,10.57
2023-03-10T01:39:00.378Z,11.15
2023-03-10T01:42:03.375Z,10.38
2023-03-10T01:45:10.248Z,10.80
2023-03-10T01:48:17.006Z,10.75
2023-03-10T01:51:20.609Z,10.50
2023-03-10T01:54:29.075Z,10.35
2023-03-10T01:57:37.670Z,9.98
2023-03-10T02:00:43.656Z,10.73
2023-03-10T02:03:53.626Z,10.98
2023-03-10T02:06:57.788Z,9.75
2023-03-10T02:10:02.333Z,9.90
2023-03-10T02:13:04.999Z,10.57
2023-03-10T02:16:08.361Z,10.20
2023-03-10T02:19:29.161Z,10.27
2023-03-10T02:22:33.007Z,10.32
2023-03-10T02:25:48.196Z,10.57
2023-03-10T02:28:55.127Z,9.63
2023-03-10T02:31:58.826Z,9.85
2023-03-10T02:35:02.720Z,10.00
2023-03-10T02:38:05.898Z,10.25
2023-03-10T02:44:23.477Z,9.82
2023-03-10T02:47:26.778Z,10.25
2023-03-10T02:50:37.013Z,9.68
2023-03-10T02:53:40.165Z,8.93
2023-03-10T02:56:43.059Z,8.90
2023-03-10T02:59:46.326Z,9.02
2023-03-10T03:02:49.775Z,8.88
2023-03-10T03:05:53.105Z,9.57
2023-03-10T03:08:55.966Z,9.00
2023-03-10T03:12:00.148Z,8.93
2023-03-10T03:15:03.901Z,9.13
2023-03-10T03:18:07.236Z,9.77
2023-03-10T03:21:12.616Z,9.32
2023-03-10T03:24:23.482Z,9.60
2023-03-10T03:27:26.182Z,9.90
2023-03-10T03:30:30.526Z,10.82
2023-03-10T03:36:38.107Z,10.23
2023-03-10T03:39:41.221Z,11.52
2023-03-10T03:42:49.536Z,9.98
2023-03-10T03:45:52.385Z,11.75
2023-03-10T03:48:56.092Z,10.32
2023-03-10T03:51:58.955Z,10.52
2023-03-10T03:55:04.252Z,10.68
2023-03-10T03:58:07.314Z,10.05
2023-03-10T04:01:10.588Z,9.48
2023-03-10T04:04:14.645Z,9.35
2023-03-10T04:10:23.646Z,8.90
2023-03-10T04:13:26.894Z,9.13
2023-03-10T04:16:29.805Z,9.43
2023-03-10T04:22:37.331Z,8.82
2023-03-10T04:25:43.109Z,8.20
2023-03-10T04:28:46.493Z,9.30
2023-03-10T04:32:04.744Z,7.87
2023-03-10T04:35:10.940Z,8.05
2023-03-10T04:38:13.853Z,9.48
2023-03-10T04:41:17.686Z,8.77
2023-03-10T04:44:30.581Z,9.40
2023-03-10T04:47:34.841Z,9.88
2023-03-10T04:50:37.759Z,9.75
2023-03-10T04:53:40.817Z,9.40
2023-03-10T04:56:44.044Z,10.13
2023-03-10T04:59:47.156Z,10.18
2023-03-10T05:02:50.505Z,10.18
2023-03-10T05:05:53.650Z,9.15
2023-03-10T05:08:58.095Z,9.73
2023-03-10T05:12:01.103Z,9.68
2023-03-10T05:15:06.010Z,10.57
2023-03-10T05:18:11.840Z,9.88
2023-03-10T05:21:15.718Z,10.45
2023-03-10T05:24:19.344Z,10.60
2023-03-10T05:27:22.534Z,9.32
2023-03-10T05:30:26.187Z,9.82
2023-03-10T05:33:31.487Z,10.23
2023-03-10T05:36:34.917Z,10.63
2023-03-10T05:39:39.581Z,9.68
2023-03-10T05:42:44.572Z,11.00
2023-03-10T05:45:55.323Z,10.20
2023-03-10T05:48:58.688Z,10.13
2023-03-10T05:52:01.822Z,9.73
2023-03-10T05:55:06.145Z,9.88
2023-03-10T05:58:09.150Z,9.32
2023-03-10T06:01:12.218Z,10.15
2023-03-10T06:07:18.033Z,9.57
2023-03-10T06:13:26.210Z,9.20
2023-03-10T06:16:29.523Z,9.70
2023-03-10T06:19:32.113Z,9.25
2023-03-10T06:22:35.321Z,10.02
2023-03-10T06:25:38.565Z,8.73
2023-03-10T06:31:45.102Z,9.68
2023-03-10T06:34:48.319Z,9.50
2023-03-10T06:37:51.227Z,9.52
2023-03-10T06:40:54.607Z,9.85
2023-03-10T06:43:59.892Z,9.02
2023-03-10T06:47:05.608Z,9.52
2023-03-10T06:50:09.444Z,9.25
2023-03-10T06:53:12.713Z,8.93
2023-03-10T06:56:20.529Z,8.82
2023-03-10T06:59:23.974Z,8.80
2023-03-10T07:02:26.530Z,10.07
2023-03-10T07:05:29.685Z,9.93
2023-03-10T07:08:32.285Z,10.13
2023-03-10T07:11:35.357Z,9.20
2023-03-10T07:14:37.859Z,9.30
2023-03-10T07:17:41.009Z,10.20
2023-03-10T07:20:45.174Z,11.07
2023-03-10T07:23:48.741Z,10.57
2023-03-10T07:26:51.535Z,11.05
2023-03-10T07:29:54.917Z,10.25
2023-03-10T07:32:57.623Z,10.77
2023-03-10T07:36:05.671Z,11.02
2023-03-10T07:39:08.510Z,11.68
2023-03-10T07:42:11.661Z,11.12
2023-03-10T07:45:14.225Z,10.82
2023-03-10T07:48:17.391Z,11.45
2023-03-10T07:51:20.246Z,11.55
2023-03-10T07:54:23.391Z,12.07
2023-03-10T07:57:26.312Z,11.20
2023-03-10T08:00:29.413Z,11.18
2023-03-10T08:03:34.239Z,10.82
2023-03-10T08:06:38.021Z,11.02
2023-03-10T08:09:41.442Z,9.25
2023-03-10T08:12:44.578Z,9.52
2023-03-10T08:15:47.415Z,9.93
2023-03-10T08:18:52.190Z,7.97
2023-03-10T08:21:56.572Z,8.30
2023-03-10T08:24:59.634Z,7.28
2023-03-10T08:28:02.498Z,7.97
2023-03-10T08:31:11.014Z,7.93
2023-03-10T08:34:14.760Z,8.02
2023-03-10T08:37:17.625Z,8.18
2023-03-10T08:40:21.121Z,8.38
2023-03-10T08:43:24.202Z,8.27
2023-03-10T08:46:29.695Z,8.88
2023-03-10T08:49:32.710Z,9.75
2023-03-10T08:52:35.581Z,9.60
2023-03-10T08:55:38.534Z,9.23
2023-03-10T08:58:41.566Z,9.60
2023-03-10T09:01:44.494Z,10.23
2023-03-10T09:04:47.534Z,10.00
2023-03-10T09:07:50.374Z,10.07
2023-03-10T09:10:53.329Z,9.13
2023-03-10T09:13:56.232Z,10.02
2023-03-10T09:16:59.235Z,9.25
2023-03-10T09:20:02.220Z,10.13
2023-03-10T09:23:06.029Z,11.43
2023-03-10T09:26:09.380Z,14.10
2023-03-10T09:29:12.270Z,13.27
2023-03-10T09:32:15.232Z,8.57
2023-03-10T09:35:18.658Z,7.43
2023-03-10T09:38:21.449Z,7.95
2023-03-10T09:42:10.946Z,7.32
2023-03-10T09:45:38.278Z,7.90
2023-03-10T09:49:24.794Z,6.72
2023-03-10T09:52:30.267Z,7.05
2023-03-10T09:55:48.015Z,6.72
2023-03-10T09:59:05.550Z,6.28
2023-03-10T10:02:21.348Z,6.47
2023-03-10T10:05:31.423Z,6.68
2023-03-10T10:08:41.370Z,6.60
2023-03-10T10:11:44.518Z,6.60
2023-03-10T10:14:55.261Z,6.93
2023-03-10T10:21:41.763Z,6.72
2023-03-10T10:25:09.036Z,5.37
2023-03-10T10:28:33.059Z,5.30
2023-03-10T10:31:36.388Z,4.90
2023-03-10T10:34:43.911Z,5.05
2023-03-10T10:38:02.760Z,4.72
2023-03-10T10:41:16.492Z,4.40
2023-03-10T10:44:21.382Z,4.47
2023-03-10T10:47:34.793Z,5.37
2023-03-10T10:50:38.015Z,4.70
2023-03-10T10:53:42.654Z,5.37
2023-03-10T10:56:54.397Z,5.35
2023-03-10T11:00:18.539Z,5.28
2023-03-10T11:04:03.873Z,5.30
2023-03-10T11:07:12.685Z,4.75
2023-03-10T11:10:17.093Z,5.40
2023-03-10T11:13:35.518Z,5.50
2023-03-10T11:16:47.036Z,5.50
2023-03-10T11:20:12.296Z,5.32
2023-03-10T11:23:33.494Z,5.50
2023-03-10T11:27:01.902Z,5.30
2023-03-10T11:30:25.838Z,4.55
2023-03-10T11:33:34.120Z,4.35
2023-03-10T11:37:15.124Z,4.00
2023-03-10T11:40:36.299Z,4.20
2023-03-10T11:43:45.023Z,4.15
2023-03-10T11:47:02.854Z,4.45
2023-03-10T11:50:46.742Z,4.40
2023-03-10T11:53:53.155Z,4.25
2023-03-10T11:56:58.393Z,4.35
2023-03-10T12:00:05.593Z,4.35
2023-03-10T12:03:20.343Z,3.67
2023-03-10T12:06:57.572Z,3.85
2023-03-10T12:10:25.537Z,4.07
2023-03-10T12:13:44.569Z,4.53
2023-03-10T12:16:49.303Z,4.15
2023-03-10T12:20:12.120Z,3.80
2023-03-10T12:23:42.552Z,3.30
2023-03-10T12:26:45.332Z,2.80
2023-03-10T12:32:50.759Z,2.72
2023-03-10T12:36:01.752Z,2.83
2023-03-10T12:39:40.697Z,3.37
2023-03-10T12:42:45.675Z,3.00
2023-03-10T12:45:48.634Z,3.08
2023-03-10T12:49:21.119Z,3.00
2023-03-10T12:52:51.869Z,2.67
2023-03-10T12:56:13.081Z,2.55
2023-03-10T12:59:27.408Z,2.53
2023-03-10T13:02:47.979Z,2.10
2023-03-10T13:06:01.358Z,2.80
2023-03-10T13:09:14.535Z,2.60
2023-03-10T13:12:20.388Z,2.62
2023-03-10T13:15:31.611Z,2.85
2023-03-10T13:18:35.242Z,2.72
2023-03-10T13:21:39.621Z,2.33
2023-03-10T13:24:43.254Z,2.35
2023-03-10T13:27:46.113Z,1.85
2023-03-10T13:30:49.163Z,2.17
2023-03-10T13:33:54.156Z,2.10
2023-03-10T13:37:05.847Z,2.05
2023-03-10T13:40:10.959Z,2.85
2023-03-10T13:43:48.607Z,2.10
2023-03-10T13:47:00.842Z,2.50
2023-03-10T13:50:03.974Z,2.70
2023-03-10T13:53:23.377Z,2.50
2023-03-10T13:56:33.117Z,2.67
2023-03-10T13:59:36.798Z,2.80
2023-03-10T14:02:41.217Z,3.55
2023-03-10T14:05:47.253Z,3.08
2023-03-10T14:08:52.329Z,2.85
2023-03-10T14:11:55.827Z,2.78
2023-03-10T14:18:15.013Z,2.50
2023-03-10T14:21:23.417Z,2.50
2023-03-10T14:24:28.013Z,2.30
2023-03-10T14:27:34.230Z,2.67
2023-03-10T14:30:38.952Z,2.78
2023-03-10T14:33:42.337Z,2.30
2023-03-10T14:36:45.465Z,2.67
2023-03-10T14:39:48.077Z,2.67
2023-03-10T14:42:53.021Z,2.12
2023-03-10T14:45:58.658Z,2.60
2023-03-10T14:49:02.142Z,2.47
2023-03-10T14:52:11.544Z,2.75
2023-03-10T14:55:14.973Z,2.80
2023-03-10T14:58:24.290Z,2.45
2023-03-10T15:01:30.817Z,2.72
2023-03-10T15:04:33.551Z,2.95
2023-03-10T15:07:36.779Z,3.00
2023-03-10T15:10:46.666Z,3.33
2023-03-10T15:13:49.831Z,2.90
2023-03-10T15:16:52.457Z,3.53
2023-03-10T15:19:55.644Z,3.80
2023-03-10T15:22:58.607Z,4.50
2023-03-10T15:26:09.626Z,4.03
2023-03-10T15:29:18.079Z,4.57
2023-03-10T15:32:21.368Z,4.20
2023-03-10T15:35:25.454Z,4.32
2023-03-10T15:38:28.596Z,4.18
2023-03-10T15:41:35.607Z,4.37
2023-03-10T15:44:38.838Z,4.00
2023-03-10T15:47:41.878Z,4.28
2023-03-10T15:50:47.151Z,4.53
2023-03-10T15:53:50.114Z,4.60
2023-03-10T15:56:53.221Z,4.62
2023-03-10T15:59:55.845Z,4.75
2023-03-10T16:02:59.768Z,5.55
2023-03-10T16:06:04.618Z,5.35
2023-03-10T16:09:09.121Z,4.87
2023-03-10T16:12:12.758Z,4.78
2023-03-10T16:15:18.101Z,5.40
2023-03-10T16:18:21.325Z,5.25
2023-03-10T16:21:24.415Z,5.15
2023-03-10T16:27:29.964Z,4.93
2023-03-10T16:30:32.836Z,5.72
2023-03-10T16:33:35.883Z,6.12
2023-03-10T16:36:38.724Z,5.85
2023-03-10T16:39:41.519Z,5.47
2023-03-10T16:42:45.688Z,4.45
2023-03-10T16:45:51.034Z,5.65
2023-03-10T16:48:54.885Z,5.55
2023-03-10T16:52:00.330Z,5.53
2023-03-10T16:55:05.176Z,5.78
2023-03-10T16:58:08.491Z,5.25
2023-03-10T17:01:11.687Z,5.62
2023-03-10T17:04:14.760Z,5.90
2023-03-10T17:07:19.266Z,6.10
2023-03-10T17:10:22.425Z,5.80
2023-03-10T17:13:25.329Z,5.82
2023-03-10T17:16:31.474Z,6.60
2023-03-10T17:19:34.517Z,6.55
2023-03-10T17:22:38.598Z,7.43
2023-03-10T17:25:43.189Z,7.03
2023-03-10T17:28:48.674Z,8.27
2023-03-10T17:31:51.834Z,8.63
2023-03-10T17:34:54.954Z,8.73
2023-03-10T17:37:57.786Z,8.30
2023-03-10T17:41:04.965Z,8.45
2023-03-10T17:44:07.788Z,7.97
2023-03-10T17:47:12.220Z,8.18
2023-03-10T17:50:15.215Z,8.20
2023-03-10T17:53:18.409Z,8.18
2023-03-10T17:56:22.171Z,7.62
2023-03-10T17:59:25.283Z,8.15
2023-03-10T18:02:28.410Z,8.32
2023-03-10T18:05:31.919Z,8.75
2023-03-10T18:08:34.545Z,7.68
2023-03-10T18:11:37.765Z,7.18
2023-03-10T18:14:40.290Z,7.12
2023-03-10T18:20:46.282Z,8.45
2023-03-10T18:23:51.236Z,7.80
2023-03-10T18:26:53.761Z,7.85
2023-03-10T18:33:01.046Z,6.03
2023-03-10T18:36:06.397Z,5.78
2023-03-10T18:39:08.914Z,4.18
2023-03-10T18:45:14.569Z,3.60
2023-03-10T18:51:20.099Z,3.70
2023-03-10T18:57:25.519Z,3.10
2023-03-10T19:03:31.516Z,4.15
2023-03-10T19:06:35.128Z,4.30
2023-03-10T19:09:37.655Z,4.70
2023-03-10T19:12:41.799Z,5.12
2023-03-10T19:15:44.313Z,4.82
2023-03-10T19:21:50.877Z,4.97
2023-03-10T19:24:54.301Z,4.80
2023-03-10T19:27:57.010Z,4.35
2023-03-10T19:31:00.253Z,3.87
2023-03-10T19:34:03.072Z,3.78
2023-03-10T19:37:06.143Z,21.62
2023-03-10T19:40:12.920Z,3.60
2023-03-10T19:43:16.023Z,3.80
2023-03-10T19:46:18.896Z,4.10
2023-03-10T19:49:24.434Z,4.35
2023-03-10T19:52:27.145Z,3.95
2023-03-10T19:58:32.838Z,4.10
2023-03-10T20:04:42.994Z,4.05
2023-03-10T20:07:46.729Z,3.35
2023-03-10T20:10:49.962Z,3.92
2023-03-10T20:13:54.146Z,5.25
2023-03-10T20:16:58.162Z,5.07
2023-03-10T20:20:01.045Z,4.60
2023-03-10T20:23:03.977Z,4.97
2023-03-10T20:26:09.587Z,5.18
2023-03-10T20:29:12.795Z,4.65
2023-03-10T20:35:18.951Z,6.22
2023-03-10T20:38:22.096Z,5.95
2023-03-10T20:41:25.343Z,6.55
2023-03-10T20:47:30.953Z,5.68
2023-03-10T20:50:34.087Z,5.32
2023-03-10T20:53:37.463Z,5.72
2023-03-10T20:56:40.698Z,6.28
2023-03-10T20:59:43.551Z,6.28
2023-03-10T21:02:47.986Z,5.93
2023-03-10T21:05:51.244Z,6.40
2023-03-10T21:08:54.220Z,5.75
2023-03-10T21:11:57.098Z,7.25
2023-03-10T21:15:00.018Z,7.57
2023-03-10T21:18:02.882Z,6.90
2023-03-10T21:21:09.785Z,7.68
2023-03-10T21:24:16.509Z,6.32
2023-03-10T21:30:23.594Z,10.88
2023-03-10T21:33:27.738Z,5.95
2023-03-10T21:36:32.192Z,5.10
2023-03-10T21:39:35.354Z,5.20
2023-03-10T21:42:37.940Z,4.07
2023-03-10T21:48:44.363Z,4.30
2023-03-10T21:51:48.025Z,4.50
2023-03-10T21:54:51.268Z,5.05
2023-03-10T21:57:54.626Z,5.60
2023-03-10T22:00:57.296Z,4.97
2023-03-10T22:04:00.816Z,3.83
2023-03-10T22:07:03.450Z,4.55
2023-03-10T22:10:07.902Z,4.68
2023-03-10T22:13:10.498Z,4.00
2023-03-10T22:16:17.519Z,4.07
2023-03-10T22:19:20.217Z,4.22
2023-03-10T22:25:26.050Z,3.00
2023-03-10T22:31:31.555Z,2.50
2023-03-10T22:37:38.306Z,2.10
2023-03-10T22:40:41.423Z,2.30
2023-03-10T22:43:44.187Z,2.05
2023-03-10T22:46:47.535Z,2.10
2023-03-10T22:49:50.105Z,1.67
2023-03-10T22:52:53.376Z,1.65
2023-03-10T22:55:55.988Z,1.45
2023-03-10T23:02:06.545Z,1.65
2023-03-10T23:05:10.040Z,1.65
2023-03-10T23:08:13.054Z,1.98
2023-03-10T23:11:16.241Z,1.50
2023-03-10T23:14:20.214Z,1.55
2023-03-10T23:17:23.327Z,1.30
2023-03-10T23:20:29.442Z,1.17
2023-03-10T23:23:32.626Z,0.98
2023-03-10T23:26:37.345Z,1.10
2023-03-10T23:29:40.544Z,0.80
2023-03-10T23:32:46.055Z,0.60
2023-03-10T23:35:53.787Z,0.85
2023-03-10T23:38:56.768Z,0.57
2023-03-10T23:41:59.872Z,0.68
2023-03-10T23:45:04.174Z,0.45
2023-03-10T23:48:12.398Z,0.37
2023-03-10T23:51:17.470Z,0.50
2023-03-10T23:54:22.418Z,0.30
2023-03-10T23:57:25.274Z,0.50
